Route Details

Aircraft Information
Group: North America Fleet
Types: B738, B752, B762, B763
Route Data
Distance: 847nm
Duration: 2h 29m
Origin METAR: KAFW 072353Z 03015G23KT 2 1/2SM -DZ BR OVC005 08/08 A3006 RMK AO2 SLP179 P0000 60003 T00830078 10111 20083 50008
Dest. METAR: KLAL 080015Z AUTO 10006KT 10SM CLR 20/12 A3026 RMK AO2 T02040116
Freight Data
(for Feb 8, 2023)
Load Factor:
56%
Manifested Cargo: 29,831lbs
Financial History
Total Freight: 0lbs
Average Load: 0lbs/flt
Fuel Used: 0lbs
Avg. Fuel Used: 0lbs/flt
Fuel Expense: $0
Avg. Fuel Expense: $0
Avg. Fuel Cost: $0/lbs
Total Gross Income: $0
Pilot Pay: $0
Total Expenses: $0
Total Revenue: $0
Average Revenue: $0

Capitol Logistics 439




KAFW
Fort Worth Alliance Airport
Fort Worth, Texas
KLAL
Lakeland Linder Regional Airport
Lakeland, Florida

Activity Log

Date Flight Route Aircraft Duration
No Flights Yet